Overview Statistics Trail Chart Weather Telemetry Raw packets
 

This is the latest recevied weather packets stored in our database for station/object KY0TEQ-13. If no packets are shown the sender has not sent any weather packets the latest 10 day(s).

<< 14 15 16 17 18 19 20 >>
Time Temp. Humidity Pressure Rain* Wind** Luminosity Snow
1788591941 16.11° C 53% 1308.8 hPa 0 mm - 0 W/m² -
1788591637 15.56° C 54% 1308.8 hPa 0 mm - 0 W/m² -
1788591335 15.56° C 54% 1308.6 hPa 0 mm - 0 W/m² -
1788591055 15.56° C 56% 1308.8 hPa 0 mm - 0 W/m² -
1788590730 15.56° C 55% 1308.6 hPa 0 mm - 0 W/m² -
1788590426 16.11° C 54% 1308.8 hPa 0 mm - 0 W/m² -
1788590124 16.11° C 54% 1308.6 hPa 0 mm - 0 W/m² -
1788589822 15.56° C 55% 1308.4 hPa 0 mm - 0 W/m² -
1788589521 16.11° C 53% 1308.6 hPa 0 mm - 0 W/m² -
1788589245 15.56° C 54% 1308.6 hPa 0 mm - 0 W/m² -
1788588917 16.11° C 53% 1308.6 hPa 0 mm - 0 W/m² -
1788588615 16.11° C 52% 1308.6 hPa 0 mm - 0 W/m² -
1788588311 17.22° C 49% 1308.3 hPa 0 mm - 0 W/m² -
1788588007 16.67° C 49% 1308.3 hPa 0 mm - 0 W/m² -
1788587705 16.67° C 49% 1308 hPa 0 mm - 0 W/m² -
1788587400 16.67° C 50% 1308.3 hPa 0 mm - 0 W/m² -
1788587096 16.67° C 50% 1308 hPa 0 mm - 0 W/m² -
1788586791 16.11° C 52% 1308.3 hPa 0 mm - 0 W/m² -
1788586486 15.56° C 53% 1308.2 hPa 0 mm - 0 W/m² -
1788586182 15.56° C 53% 1308.3 hPa 0 mm - 0 W/m² -
1788585881 14.44° C 56% 1308.3 hPa 0 mm - 0 W/m² -
1788585581 14.44° C 57% 1308.2 hPa 0 mm - 0 W/m² -
1788585275 15.56° C 55% 1308 hPa 0 mm - 0 W/m² -
1788584973 15.56° C 54% 1308.3 hPa 0 mm - 0 W/m² -
1788584668 15.56° C 54% 1308.3 hPa 0 mm - 0 W/m² -

* Rain latest hour (hover to see other rain measurements)
** Current wind speed in m/s (hover to see current wind gust speed)